Terminal Aerodrome Forecast
Issued by NWS

Home | Current Version | Previous Version | Text Only | Print | Product List | Glossary On
Versions: 1 2 3 4 5 6 7 8 9 10 11 12 13 14 15 16 17
465
FTAK31 PAJN 041737
TAFASI
TAF
PASI 041737Z 0418/0518 10006KT P6SM VCSH SCT035 BKN050
      TEMPO 0418/0421 VRB05KT 6SM -SHRA BKN025 OVC035
     FM042200 23008KT P6SM SCT035 BKN050
     FM050500 19010KT P6SM -RA SCT025 OVC035
     FM050900 16012KT 6SM -RA BR BKN025 OVC035=

USA.gov is the U.S. government's official web portal to all federal, state and local government web resources and services.